sensor_id;sensor_type;location;lat;lon;timestamp;P1;durP1;ratioP1;P2;durP2;ratioP2
29002;SDS011;16102;57.138;-2.118;2023-04-25T05:00:05;0.85;;;0.57;;
29002;SDS011;16102;57.138;-2.118;2023-04-25T05:02:39;1.52;;;0.90;;
29002;SDS011;16102;57.138;-2.118;2023-04-25T05:05:07;1.48;;;0.65;;
29002;SDS011;16102;57.138;-2.118;2023-04-25T05:07:34;3.47;;;1.30;;
29002;SDS011;16102;57.138;-2.118;2023-04-25T05:10:01;3.10;;;0.93;;
29002;SDS011;16102;57.138;-2.118;2023-04-25T05:12:28;2.88;;;1.13;;
29002;SDS011;16102;57.138;-2.118;2023-04-25T05:14:56;2.28;;;0.90;;
29002;SDS011;16102;57.138;-2.118;2023-04-25T05:17:23;1.92;;;1.05;;
29002;SDS011;16102;57.138;-2.118;2023-04-25T05:19:50;3.28;;;0.75;;
29002;SDS011;16102;57.138;-2.118;2023-04-25T05:22:17;6.22;;;1.00;;
29002;SDS011;16102;57.138;-2.118;2023-04-25T05:24:44;1.77;;;0.70;;
29002;SDS011;16102;57.138;-2.118;2023-04-25T05:27:11;3.67;;;0.93;;
29002;SDS011;16102;57.138;-2.118;2023-04-25T05:29:38;7.18;;;2.40;;
29002;SDS011;16102;57.138;-2.118;2023-04-25T05:32:05;5.72;;;0.95;;
29002;SDS011;16102;57.138;-2.118;2023-04-25T05:34:32;5.45;;;0.82;;
29002;SDS011;16102;57.138;-2.118;2023-04-25T05:36:59;2.05;;;0.70;;
29002;SDS011;16102;57.138;-2.118;2023-04-25T05:39:26;2.90;;;0.52;;
29002;SDS011;16102;57.138;-2.118;2023-04-25T05:41:53;3.25;;;0.75;;
29002;SDS011;16102;57.138;-2.118;2023-04-25T05:44:20;0.85;;;0.57;;
29002;SDS011;16102;57.138;-2.118;2023-04-25T05:46:47;4.10;;;1.15;;
29002;SDS011;16102;57.138;-2.118;2023-04-25T05:49:14;5.70;;;1.13;;
29002;SDS011;16102;57.138;-2.118;2023-04-25T05:51:44;3.75;;;0.52;;
29002;SDS011;16102;57.138;-2.118;2023-04-25T05:54:11;3.33;;;1.15;;
29002;SDS011;16102;57.138;-2.118;2023-04-25T05:56:38;2.08;;;0.50;;
29002;SDS011;16102;57.138;-2.118;2023-04-25T05:59:05;0.82;;;0.52;;
29002;SDS011;16102;57.138;-2.118;2023-04-25T06:01:32;4.97;;;1.75;;
29002;SDS011;16102;57.138;-2.118;2023-04-25T06:03:59;2.90;;;0.70;;
29002;SDS011;16102;57.138;-2.118;2023-04-25T06:06:26;1.55;;;0.70;;
29002;SDS011;16102;57.138;-2.118;2023-04-25T06:08:54;2.10;;;0.55;;
29002;SDS011;16102;57.138;-2.118;2023-04-25T06:11:21;1.98;;;0.52;;
29002;SDS011;16102;57.138;-2.118;2023-04-25T06:13:48;1.95;;;0.98;;
29002;SDS011;16102;57.138;-2.118;2023-04-25T06:16:16;1.02;;;0.60;;
29002;SDS011;16102;57.138;-2.118;2023-04-25T06:18:43;1.98;;;0.80;;
29002;SDS011;16102;57.138;-2.118;2023-04-25T06:21:10;1.98;;;0.73;;
29002;SDS011;16102;57.138;-2.118;2023-04-25T06:23:37;4.55;;;0.70;;
29002;SDS011;16102;57.138;-2.118;2023-04-25T06:26:03;2.35;;;0.60;;
29002;SDS011;16102;57.138;-2.118;2023-04-25T06:28:30;0.70;;;0.32;;
29002;SDS011;16102;57.138;-2.118;2023-04-25T06:30:57;1.17;;;0.30;;
29002;SDS011;16102;57.138;-2.118;2023-04-25T06:33:24;5.70;;;0.90;;
29002;SDS011;16102;57.138;-2.118;2023-04-25T06:35:52;0.60;;;0.50;;
29002;SDS011;16102;57.138;-2.118;2023-04-25T06:38:19;3.35;;;1.00;;
29002;SDS011;16102;57.138;-2.118;2023-04-25T06:40:46;2.85;;;1.08;;
29002;SDS011;16102;57.138;-2.118;2023-04-25T06:43:13;4.13;;;1.80;;
29002;SDS011;16102;57.138;-2.118;2023-04-25T06:45:40;3.83;;;0.95;;
29002;SDS011;16102;57.138;-2.118;2023-04-25T06:48:09;7.10;;;1.17;;
29002;SDS011;16102;57.138;-2.118;2023-04-25T06:50:36;7.03;;;2.08;;
29002;SDS011;16102;57.138;-2.118;2023-04-25T06:53:03;4.10;;;1.13;;
29002;SDS011;16102;57.138;-2.118;2023-04-25T06:55:30;3.88;;;0.93;;
29002;SDS011;16102;57.138;-2.118;2023-04-25T06:57:57;6.93;;;1.23;;
29002;SDS011;16102;57.138;-2.118;2023-04-25T07:00:24;2.13;;;0.75;;
29002;SDS011;16102;57.138;-2.118;2023-04-25T07:02:51;6.72;;;0.90;;
29002;SDS011;16102;57.138;-2.118;2023-04-25T07:05:18;3.08;;;0.90;;
29002;SDS011;16102;57.138;-2.118;2023-04-25T07:07:45;3.63;;;0.93;;
29002;SDS011;16102;57.138;-2.118;2023-04-25T07:10:12;5.22;;;0.93;;
29002;SDS011;16102;57.138;-2.118;2023-04-25T07:12:39;4.40;;;1.00;;
29002;SDS011;16102;57.138;-2.118;2023-04-25T07:15:06;6.15;;;2.47;;
29002;SDS011;16102;57.138;-2.118;2023-04-25T07:17:36;4.50;;;0.88;;
29002;SDS011;16102;57.138;-2.118;2023-04-25T07:20:04;2.38;;;1.02;;
29002;SDS011;16102;57.138;-2.118;2023-04-25T07:22:32;1.95;;;0.65;;
29002;SDS011;16102;57.138;-2.118;2023-04-25T07:24:59;1.25;;;0.60;;
29002;SDS011;16102;57.138;-2.118;2023-04-25T07:27:26;1.30;;;0.80;;
29002;SDS011;16102;57.138;-2.118;2023-04-25T07:29:53;4.93;;;0.85;;
29002;SDS011;16102;57.138;-2.118;2023-04-25T07:32:20;2.78;;;0.60;;
29002;SDS011;16102;57.138;-2.118;2023-04-25T07:34:47;1.60;;;0.43;;
29002;SDS011;16102;57.138;-2.118;2023-04-25T07:37:14;3.70;;;0.65;;
29002;SDS011;16102;57.138;-2.118;2023-04-25T07:39:41;1.73;;;0.52;;
29002;SDS011;16102;57.138;-2.118;2023-04-25T07:42:08;1.80;;;0.52;;
29002;SDS011;16102;57.138;-2.118;2023-04-25T07:44:35;3.00;;;0.70;;
29002;SDS011;16102;57.138;-2.118;2023-04-25T07:47:05;3.72;;;0.75;;
29002;SDS011;16102;57.138;-2.118;2023-04-25T07:49:33;2.78;;;0.60;;
29002;SDS011;16102;57.138;-2.118;2023-04-25T07:52:01;1.58;;;0.85;;
29002;SDS011;16102;57.138;-2.118;2023-04-25T07:54:29;3.03;;;1.83;;
29002;SDS011;16102;57.138;-2.118;2023-04-25T07:56:56;0.60;;;0.60;;
29002;SDS011;16102;57.138;-2.118;2023-04-25T07:59:24;3.15;;;0.60;;
29002;SDS011;16102;57.138;-2.118;2023-04-25T08:01:53;2.42;;;0.80;;
29002;SDS011;16102;57.138;-2.118;2023-04-25T08:04:21;3.45;;;0.80;;
29002;SDS011;16102;57.138;-2.118;2023-04-25T08:06:49;2.05;;;0.73;;
29002;SDS011;16102;57.138;-2.118;2023-04-25T08:09:16;1.85;;;0.60;;
29002;SDS011;16102;57.138;-2.118;2023-04-25T08:11:43;1.27;;;0.38;;
29002;SDS011;16102;57.138;-2.118;2023-04-25T08:14:10;3.67;;;0.90;;
29002;SDS011;16102;57.138;-2.118;2023-04-25T08:16:38;4.03;;;0.73;;
29002;SDS011;16102;57.138;-2.118;2023-04-25T08:19:06;2.47;;;0.60;;
29002;SDS011;16102;57.138;-2.118;2023-04-25T08:21:32;2.05;;;0.80;;
29002;SDS011;16102;57.138;-2.118;2023-04-25T08:24:00;3.50;;;0.77;;
29002;SDS011;16102;57.138;-2.118;2023-04-25T08:26:28;3.17;;;0.85;;
29002;SDS011;16102;57.138;-2.118;2023-04-25T08:28:55;4.03;;;0.57;;
29002;SDS011;16102;57.138;-2.118;2023-04-25T08:31:22;1.90;;;0.90;;
29002;SDS011;16102;57.138;-2.118;2023-04-25T08:33:49;5.15;;;0.90;;
29002;SDS011;16102;57.138;-2.118;2023-04-25T08:36:17;1.23;;;0.52;;
29002;SDS011;16102;57.138;-2.118;2023-04-25T08:39:03;3.70;;;1.03;;
29002;SDS011;16102;57.138;-2.118;2023-04-25T08:41:30;1.15;;;0.40;;
29002;SDS011;16102;57.138;-2.118;2023-04-25T08:43:58;5.38;;;0.82;;
29002;SDS011;16102;57.138;-2.118;2023-04-25T08:46:26;2.47;;;0.60;;
29002;SDS011;16102;57.138;-2.118;2023-04-25T08:48:54;3.25;;;0.77;;
29002;SDS011;16102;57.138;-2.118;2023-04-25T08:51:26;3.80;;;1.02;;
29002;SDS011;16102;57.138;-2.118;2023-04-25T08:53:57;1.58;;;0.60;;
29002;SDS011;16102;57.138;-2.118;2023-04-25T08:56:58;1.70;;;0.43;;
29002;SDS011;16102;57.138;-2.118;2023-04-25T08:59:31;4.30;;;0.75;;
29002;SDS011;16102;57.138;-2.118;2023-04-25T09:01:59;2.78;;;0.93;;
29002;SDS011;16102;57.138;-2.118;2023-04-25T09:04:27;5.90;;;0.88;;
29002;SDS011;16102;57.138;-2.118;2023-04-25T09:06:56;3.50;;;0.73;;
29002;SDS011;16102;57.138;-2.118;2023-04-25T09:09:23;2.83;;;0.47;;
29002;SDS011;16102;57.138;-2.118;2023-04-25T09:11:50;1.08;;;0.50;;
29002;SDS011;16102;57.138;-2.118;2023-04-25T09:14:20;4.68;;;0.70;;
29002;SDS011;16102;57.138;-2.118;2023-04-25T09:19:22;1.25;;;0.45;;
29002;SDS011;16102;57.138;-2.118;2023-04-25T09:22:05;0.65;;;0.40;;
29002;SDS011;16102;57.138;-2.118;2023-04-25T09:24:34;1.83;;;0.75;;
29002;SDS011;16102;57.138;-2.118;2023-04-25T09:27:09;1.33;;;0.45;;
29002;SDS011;16102;57.138;-2.118;2023-04-25T09:29:38;1.95;;;0.50;;
29002;SDS011;16102;57.138;-2.118;2023-04-25T09:32:10;1.25;;;0.32;;
29002;SDS011;16102;57.138;-2.118;2023-04-25T09:34:43;0.93;;;0.50;;
29002;SDS011;16102;57.138;-2.118;2023-04-25T09:37:17;3.28;;;0.63;;
29002;SDS011;16102;57.138;-2.118;2023-04-25T09:39:49;0.60;;;0.50;;
29002;SDS011;16102;57.138;-2.118;2023-04-25T09:42:23;4.53;;;0.52;;
29002;SDS011;16102;57.138;-2.118;2023-04-25T09:44:55;1.35;;;0.63;;
29002;SDS011;16102;57.138;-2.118;2023-04-25T09:47:26;0.63;;;0.50;;
29002;SDS011;16102;57.138;-2.118;2023-04-25T09:49:54;1.10;;;0.50;;
29002;SDS011;16102;57.138;-2.118;2023-04-25T09:52:22;6.72;;;0.93;;
29002;SDS011;16102;57.138;-2.118;2023-04-25T09:54:51;4.70;;;0.73;;
29002;SDS011;16102;57.138;-2.118;2023-04-25T09:57:19;1.75;;;0.50;;
29002;SDS011;16102;57.138;-2.118;2023-04-25T09:59:51;1.45;;;0.45;;
29002;SDS011;16102;57.138;-2.118;2023-04-25T10:02:20;7.38;;;1.38;;
29002;SDS011;16102;57.138;-2.118;2023-04-25T10:04:51;3.67;;;1.25;;
29002;SDS011;16102;57.138;-2.118;2023-04-25T10:07:25;3.45;;;0.88;;
29002;SDS011;16102;57.138;-2.118;2023-04-25T10:09:58;3.03;;;1.00;;
29002;SDS011;16102;57.138;-2.118;2023-04-25T10:12:29;2.45;;;0.77;;
29002;SDS011;16102;57.138;-2.118;2023-04-25T10:15:00;3.55;;;1.20;;
29002;SDS011;16102;57.138;-2.118;2023-04-25T10:17:29;5.50;;;1.17;;
29002;SDS011;16102;57.138;-2.118;2023-04-25T10:19:57;2.50;;;0.93;;
29002;SDS011;16102;57.138;-2.118;2023-04-25T10:24:59;3.55;;;1.40;;
29002;SDS011;16102;57.138;-2.118;2023-04-25T10:27:30;5.20;;;1.30;;
29002;SDS011;16102;57.138;-2.118;2023-04-25T10:30:01;2.92;;;1.10;;
29002;SDS011;16102;57.138;-2.118;2023-04-25T10:32:42;4.97;;;1.58;;
29002;SDS011;16102;57.138;-2.118;2023-04-25T10:35:10;5.60;;;1.00;;
29002;SDS011;16102;57.138;-2.118;2023-04-25T10:37:38;4.50;;;1.00;;
29002;SDS011;16102;57.138;-2.118;2023-04-25T10:40:31;2.40;;;0.98;;
29002;SDS011;16102;57.138;-2.118;2023-04-25T10:48:55;4.78;;;0.88;;
29002;SDS011;16102;57.138;-2.118;2023-04-25T10:51:31;1.05;;;0.70;;
29002;SDS011;16102;57.138;-2.118;2023-04-25T10:54:19;5.22;;;1.10;;
29002;SDS011;16102;57.138;-2.118;2023-04-25T10:56:48;2.05;;;0.70;;
29002;SDS011;16102;57.138;-2.118;2023-04-25T10:59:16;1.85;;;0.50;;
29002;SDS011;16102;57.138;-2.118;2023-04-25T11:01:46;7.53;;;1.00;;
29002;SDS011;16102;57.138;-2.118;2023-04-25T11:04:19;2.95;;;0.68;;
29002;SDS011;16102;57.138;-2.118;2023-04-25T11:09:33;3.17;;;1.10;;
29002;SDS011;16102;57.138;-2.118;2023-04-25T11:12:02;6.13;;;1.10;;
29002;SDS011;16102;57.138;-2.118;2023-04-25T11:14:29;1.98;;;0.88;;
29002;SDS011;16102;57.138;-2.118;2023-04-25T11:16:59;4.15;;;0.90;;
29002;SDS011;16102;57.138;-2.118;2023-04-25T11:19:26;1.17;;;0.55;;
29002;SDS011;16102;57.138;-2.118;2023-04-25T11:21:55;2.65;;;0.65;;
29002;SDS011;16102;57.138;-2.118;2023-04-25T11:24:29;3.67;;;0.85;;
29002;SDS011;16102;57.138;-2.118;2023-04-25T11:27:00;3.30;;;0.88;;
29002;SDS011;16102;57.138;-2.118;2023-04-25T11:29:33;7.22;;;1.20;;
29002;SDS011;16102;57.138;-2.118;2023-04-25T11:32:00;3.00;;;1.17;;
29002;SDS011;16102;57.138;-2.118;2023-04-25T11:34:29;8.68;;;2.50;;
29002;SDS011;16102;57.138;-2.118;2023-04-25T11:36:57;2.83;;;1.42;;
29002;SDS011;16102;57.138;-2.118;2023-04-25T11:39:24;4.38;;;1.25;;
29002;SDS011;16102;57.138;-2.118;2023-04-25T11:41:52;1.65;;;0.90;;
29002;SDS011;16102;57.138;-2.118;2023-04-25T11:44:20;2.33;;;0.85;;
29002;SDS011;16102;57.138;-2.118;2023-04-25T11:46:48;1.38;;;0.50;;
29002;SDS011;16102;57.138;-2.118;2023-04-25T11:49:15;4.95;;;1.08;;
29002;SDS011;16102;57.138;-2.118;2023-04-25T11:51:44;3.58;;;0.47;;
29002;SDS011;16102;57.138;-2.118;2023-04-25T11:54:13;0.98;;;0.40;;
29002;SDS011;16102;57.138;-2.118;2023-04-25T11:56:44;1.70;;;0.50;;
29002;SDS011;16102;57.138;-2.118;2023-04-25T11:59:11;2.30;;;0.55;;
29002;SDS011;16102;57.138;-2.118;2023-04-25T12:01:40;2.40;;;0.50;;
29002;SDS011;16102;57.138;-2.118;2023-04-25T12:04:20;0.73;;;0.38;;
29002;SDS011;16102;57.138;-2.118;2023-04-25T12:06:50;1.63;;;0.50;;
29002;SDS011;16102;57.138;-2.118;2023-04-25T12:09:21;5.68;;;0.70;;
29002;SDS011;16102;57.138;-2.118;2023-04-25T12:11:55;0.93;;;0.60;;
29002;SDS011;16102;57.138;-2.118;2023-04-25T12:14:28;2.15;;;0.70;;
29002;SDS011;16102;57.138;-2.118;2023-04-25T12:16:57;3.30;;;0.80;;
29002;SDS011;16102;57.138;-2.118;2023-04-25T12:19:26;2.45;;;0.80;;
29002;SDS011;16102;57.138;-2.118;2023-04-25T12:21:57;2.13;;;0.80;;
29002;SDS011;16102;57.138;-2.118;2023-04-25T12:24:26;1.55;;;0.47;;
29002;SDS011;16102;57.138;-2.118;2023-04-25T12:27:01;2.50;;;0.85;;
29002;SDS011;16102;57.138;-2.118;2023-04-25T12:29:30;1.97;;;0.80;;
29002;SDS011;16102;57.138;-2.118;2023-04-25T12:32:14;3.28;;;0.82;;
29002;SDS011;16102;57.138;-2.118;2023-04-25T12:34:41;3.63;;;1.08;;
29002;SDS011;16102;57.138;-2.118;2023-04-25T12:37:09;5.40;;;0.88;;
29002;SDS011;16102;57.138;-2.118;2023-04-25T12:39:36;3.25;;;0.70;;
29002;SDS011;16102;57.138;-2.118;2023-04-25T12:42:03;3.72;;;1.17;;
29002;SDS011;16102;57.138;-2.118;2023-04-25T12:44:34;1.33;;;0.82;;
29002;SDS011;16102;57.138;-2.118;2023-04-25T12:47:01;0.95;;;0.85;;
29002;SDS011;16102;57.138;-2.118;2023-04-25T12:49:29;2.83;;;1.17;;
29002;SDS011;16102;57.138;-2.118;2023-04-25T12:51:56;2.58;;;1.00;;
29002;SDS011;16102;57.138;-2.118;2023-04-25T12:54:24;2.33;;;0.70;;
29002;SDS011;16102;57.138;-2.118;2023-04-25T12:56:52;3.47;;;0.77;;
29002;SDS011;16102;57.138;-2.118;2023-04-25T12:59:19;0.98;;;0.73;;
29002;SDS011;16102;57.138;-2.118;2023-04-25T13:01:46;3.83;;;1.45;;
29002;SDS011;16102;57.138;-2.118;2023-04-25T13:04:14;5.90;;;0.95;;
29002;SDS011;16102;57.138;-2.118;2023-04-25T13:06:42;2.28;;;0.82;;
29002;SDS011;16102;57.138;-2.118;2023-04-25T13:09:09;10.85;;;0.98;;
29002;SDS011;16102;57.138;-2.118;2023-04-25T13:11:39;2.42;;;1.23;;
29002;SDS011;16102;57.138;-2.118;2023-04-25T13:14:07;3.70;;;0.75;;
29002;SDS011;16102;57.138;-2.118;2023-04-25T13:16:34;2.35;;;0.93;;
29002;SDS011;16102;57.138;-2.118;2023-04-25T13:19:01;1.70;;;0.82;;
29002;SDS011;16102;57.138;-2.118;2023-04-25T13:21:29;5.72;;;1.50;;
29002;SDS011;16102;57.138;-2.118;2023-04-25T13:23:58;2.50;;;1.00;;
29002;SDS011;16102;57.138;-2.118;2023-04-25T13:26:25;2.63;;;1.30;;
29002;SDS011;16102;57.138;-2.118;2023-04-25T13:28:52;2.97;;;0.93;;
29002;SDS011;16102;57.138;-2.118;2023-04-25T13:31:19;1.17;;;0.63;;
29002;SDS011;16102;57.138;-2.118;2023-04-25T13:33:46;1.73;;;0.55;;
29002;SDS011;16102;57.138;-2.118;2023-04-25T13:36:13;4.32;;;0.65;;
29002;SDS011;16102;57.138;-2.118;2023-04-25T13:38:40;2.65;;;0.68;;
29002;SDS011;16102;57.138;-2.118;2023-04-25T13:41:10;2.20;;;0.70;;
29002;SDS011;16102;57.138;-2.118;2023-04-25T13:43:41;6.35;;;1.50;;
29002;SDS011;16102;57.138;-2.118;2023-04-25T13:46:08;1.00;;;0.50;;
29002;SDS011;16102;57.138;-2.118;2023-04-25T13:48:56;3.58;;;1.00;;
29002;SDS011;16102;57.138;-2.118;2023-04-25T13:51:37;2.83;;;0.60;;
29002;SDS011;16102;57.138;-2.118;2023-04-25T13:54:03;2.60;;;1.17;;
29002;SDS011;16102;57.138;-2.118;2023-04-25T13:56:31;1.20;;;0.50;;
29002;SDS011;16102;57.138;-2.118;2023-04-25T13:58:58;5.00;;;0.90;;
29002;SDS011;16102;57.138;-2.118;2023-04-25T14:01:24;6.07;;;0.80;;
29002;SDS011;16102;57.138;-2.118;2023-04-25T14:03:52;1.95;;;0.50;;
29002;SDS011;16102;57.138;-2.118;2023-04-25T14:06:20;0.93;;;0.30;;
29002;SDS011;16102;57.138;-2.118;2023-04-25T14:08:49;2.83;;;0.77;;
29002;SDS011;16102;57.138;-2.118;2023-04-25T14:11:17;2.17;;;0.98;;
29002;SDS011;16102;57.138;-2.118;2023-04-25T14:13:46;5.10;;;0.98;;
29002;SDS011;16102;57.138;-2.118;2023-04-25T14:16:15;1.30;;;0.68;;
29002;SDS011;16102;57.138;-2.118;2023-04-25T14:18:43;3.00;;;0.68;;
29002;SDS011;16102;57.138;-2.118;2023-04-25T14:21:10;1.20;;;0.40;;
29002;SDS011;16102;57.138;-2.118;2023-04-25T14:23:37;2.33;;;0.63;;
29002;SDS011;16102;57.138;-2.118;2023-04-25T14:26:04;2.97;;;1.02;;
29002;SDS011;16102;57.138;-2.118;2023-04-25T14:28:31;2.83;;;0.60;;
29002;SDS011;16102;57.138;-2.118;2023-04-25T14:30:58;3.10;;;1.05;;
29002;SDS011;16102;57.138;-2.118;2023-04-25T14:33:26;2.45;;;0.80;;
29002;SDS011;16102;57.138;-2.118;2023-04-25T14:35:53;4.43;;;0.80;;
29002;SDS011;16102;57.138;-2.118;2023-04-25T14:38:20;9.05;;;0.80;;
29002;SDS011;16102;57.138;-2.118;2023-04-25T14:40:49;2.83;;;0.90;;
29002;SDS011;16102;57.138;-2.118;2023-04-25T14:43:16;3.42;;;0.95;;
29002;SDS011;16102;57.138;-2.118;2023-04-25T14:45:44;3.35;;;1.58;;
29002;SDS011;16102;57.138;-2.118;2023-04-25T14:48:11;2.72;;;0.90;;
29002;SDS011;16102;57.138;-2.118;2023-04-25T14:50:38;4.78;;;0.85;;
29002;SDS011;16102;57.138;-2.118;2023-04-25T14:53:05;4.00;;;0.98;;
29002;SDS011;16102;57.138;-2.118;2023-04-25T14:55:32;2.75;;;0.90;;
29002;SDS011;16102;57.138;-2.118;2023-04-25T14:57:59;1.63;;;0.60;;
29002;SDS011;16102;57.138;-2.118;2023-04-25T15:00:27;5.25;;;1.00;;
29002;SDS011;16102;57.138;-2.118;2023-04-25T15:02:55;9.02;;;1.05;;
29002;SDS011;16102;57.138;-2.118;2023-04-25T15:05:22;3.25;;;1.00;;
29002;SDS011;16102;57.138;-2.118;2023-04-25T15:07:49;1.92;;;0.70;;
29002;SDS011;16102;57.138;-2.118;2023-04-25T15:10:16;4.88;;;2.45;;
29002;SDS011;16102;57.138;-2.118;2023-04-25T15:12:44;4.80;;;1.13;;
29002;SDS011;16102;57.138;-2.118;2023-04-25T15:15:13;1.60;;;0.75;;
29002;SDS011;16102;57.138;-2.118;2023-04-25T15:17:50;2.90;;;1.17;;
29002;SDS011;16102;57.138;-2.118;2023-04-25T15:20:18;1.40;;;0.75;;
29002;SDS011;16102;57.138;-2.118;2023-04-25T15:22:44;3.60;;;1.00;;
29002;SDS011;16102;57.138;-2.118;2023-04-25T15:25:15;3.15;;;0.73;;
29002;SDS011;16102;57.138;-2.118;2023-04-25T15:27:45;4.70;;;1.13;;
29002;SDS011;16102;57.138;-2.118;2023-04-25T15:30:15;4.13;;;1.08;;
29002;SDS011;16102;57.138;-2.118;2023-04-25T15:32:43;1.13;;;0.60;;
29002;SDS011;16102;57.138;-2.118;2023-04-25T15:35:11;2.08;;;0.70;;
29002;SDS011;16102;57.138;-2.118;2023-04-25T15:37:38;7.72;;;0.68;;
29002;SDS011;16102;57.138;-2.118;2023-04-25T15:40:10;4.03;;;1.00;;
29002;SDS011;16102;57.138;-2.118;2023-04-25T15:42:47;2.58;;;0.70;;
29002;SDS011;16102;57.138;-2.118;2023-04-25T15:45:19;2.47;;;0.73;;
29002;SDS011;16102;57.138;-2.118;2023-04-25T15:47:49;3.95;;;0.80;;
29002;SDS011;16102;57.138;-2.118;2023-04-25T15:50:18;2.10;;;0.70;;
29002;SDS011;16102;57.138;-2.118;2023-04-25T15:52:46;6.63;;;0.70;;
29002;SDS011;16102;57.138;-2.118;2023-04-25T15:55:15;5.30;;;1.00;;
29002;SDS011;16102;57.138;-2.118;2023-04-25T15:57:42;5.80;;;0.70;;
29002;SDS011;16102;57.138;-2.118;2023-04-25T16:00:09;2.15;;;0.60;;
29002;SDS011;16102;57.138;-2.118;2023-04-25T16:02:38;8.40;;;1.35;;
29002;SDS011;16102;57.138;-2.118;2023-04-25T16:05:07;3.78;;;0.85;;
29002;SDS011;16102;57.138;-2.118;2023-04-25T16:07:34;5.22;;;1.10;;
29002;SDS011;16102;57.138;-2.118;2023-04-25T16:10:02;5.43;;;1.02;;
29002;SDS011;16102;57.138;-2.118;2023-04-25T16:12:29;1.55;;;0.63;;
29002;SDS011;16102;57.138;-2.118;2023-04-25T16:14:57;2.85;;;0.70;;
29002;SDS011;16102;57.138;-2.118;2023-04-25T16:17:24;1.38;;;0.73;;
29002;SDS011;16102;57.138;-2.118;2023-04-25T16:19:51;1.02;;;0.40;;
29002;SDS011;16102;57.138;-2.118;2023-04-25T16:22:18;2.53;;;0.70;;
29002;SDS011;16102;57.138;-2.118;2023-04-25T16:24:46;3.65;;;0.80;;
29002;SDS011;16102;57.138;-2.118;2023-04-25T16:27:13;5.45;;;1.15;;
29002;SDS011;16102;57.138;-2.118;2023-04-25T16:29:40;1.58;;;0.88;;
29002;SDS011;16102;57.138;-2.118;2023-04-25T16:32:07;1.73;;;1.20;;
29002;SDS011;16102;57.138;-2.118;2023-04-25T16:34:34;2.92;;;0.75;;
29002;SDS011;16102;57.138;-2.118;2023-04-25T16:37:01;1.25;;;0.70;;
29002;SDS011;16102;57.138;-2.118;2023-04-25T16:39:28;5.45;;;1.15;;
29002;SDS011;16102;57.138;-2.118;2023-04-25T16:41:55;1.58;;;0.75;;
29002;SDS011;16102;57.138;-2.118;2023-04-25T16:44:22;4.03;;;0.95;;
29002;SDS011;16102;57.138;-2.118;2023-04-25T16:46:49;3.65;;;1.23;;
29002;SDS011;16102;57.138;-2.118;2023-04-25T16:49:16;4.78;;;2.92;;
29002;SDS011;16102;57.138;-2.118;2023-04-25T16:51:43;6.15;;;1.65;;
29002;SDS011;16102;57.138;-2.118;2023-04-25T16:54:11;4.18;;;1.40;;
29002;SDS011;16102;57.138;-2.118;2023-04-25T16:56:38;2.38;;;1.00;;
29002;SDS011;16102;57.138;-2.118;2023-04-25T16:59:06;3.35;;;1.60;;
29002;SDS011;16102;57.138;-2.118;2023-04-25T17:01:33;3.42;;;1.17;;
29002;SDS011;16102;57.138;-2.118;2023-04-25T17:04:01;1.20;;;0.60;;
29002;SDS011;16102;57.138;-2.118;2023-04-25T17:06:28;3.25;;;1.92;;
29002;SDS011;16102;57.138;-2.118;2023-04-25T17:08:55;3.38;;;1.20;;
29002;SDS011;16102;57.138;-2.118;2023-04-25T17:11:22;1.45;;;0.95;;
29002;SDS011;16102;57.138;-2.118;2023-04-25T17:13:49;3.10;;;1.05;;
29002;SDS011;16102;57.138;-2.118;2023-04-25T17:16:19;1.85;;;0.90;;
29002;SDS011;16102;57.138;-2.118;2023-04-25T17:18:50;3.40;;;0.73;;
29002;SDS011;16102;57.138;-2.118;2023-04-25T17:21:18;1.70;;;0.63;;
29002;SDS011;16102;57.138;-2.118;2023-04-25T17:23:45;2.13;;;0.70;;
29002;SDS011;16102;57.138;-2.118;2023-04-25T17:26:12;2.47;;;0.73;;
29002;SDS011;16102;57.138;-2.118;2023-04-25T17:28:40;2.45;;;1.10;;
29002;SDS011;16102;57.138;-2.118;2023-04-25T17:31:10;3.05;;;1.00;;
29002;SDS011;16102;57.138;-2.118;2023-04-25T17:33:37;6.60;;;0.82;;
29002;SDS011;16102;57.138;-2.118;2023-04-25T17:36:04;0.95;;;0.60;;
29002;SDS011;16102;57.138;-2.118;2023-04-25T17:38:32;3.22;;;0.73;;
29002;SDS011;16102;57.138;-2.118;2023-04-25T17:41:00;2.30;;;0.70;;
29002;SDS011;16102;57.138;-2.118;2023-04-25T17:43:27;4.50;;;0.60;;
29002;SDS011;16102;57.138;-2.118;2023-04-25T17:45:55;1.98;;;0.77;;
29002;SDS011;16102;57.138;-2.118;2023-04-25T17:48:22;2.58;;;0.75;;
29002;SDS011;16102;57.138;-2.118;2023-04-25T17:50:49;0.93;;;0.52;;
29002;SDS011;16102;57.138;-2.118;2023-04-25T17:53:16;2.35;;;0.80;;
29002;SDS011;16102;57.138;-2.118;2023-04-25T17:55:43;0.93;;;0.43;;
29002;SDS011;16102;57.138;-2.118;2023-04-25T17:58:10;3.00;;;0.68;;
29002;SDS011;16102;57.138;-2.118;2023-04-25T18:00:37;2.65;;;0.85;;
29002;SDS011;16102;57.138;-2.118;2023-04-25T18:03:04;2.35;;;0.65;;
29002;SDS011;16102;57.138;-2.118;2023-04-25T18:05:33;1.65;;;0.50;;
29002;SDS011;16102;57.138;-2.118;2023-04-25T18:08:00;0.50;;;0.50;;
29002;SDS011;16102;57.138;-2.118;2023-04-25T18:10:27;5.53;;;3.25;;
29002;SDS011;16102;57.138;-2.118;2023-04-25T18:12:54;6.55;;;2.60;;
29002;SDS011;16102;57.138;-2.118;2023-04-25T18:15:21;4.70;;;1.35;;
29002;SDS011;16102;57.138;-2.118;2023-04-25T18:17:48;2.28;;;0.82;;
29002;SDS011;16102;57.138;-2.118;2023-04-25T18:20:15;0.93;;;0.60;;
29002;SDS011;16102;57.138;-2.118;2023-04-25T18:22:42;2.08;;;0.60;;
29002;SDS011;16102;57.138;-2.118;2023-04-25T18:25:10;1.38;;;0.60;;
29002;SDS011;16102;57.138;-2.118;2023-04-25T18:27:39;4.30;;;1.30;;
29002;SDS011;16102;57.138;-2.118;2023-04-25T18:30:07;3.70;;;0.88;;
29002;SDS011;16102;57.138;-2.118;2023-04-25T18:32:36;3.90;;;1.00;;
29002;SDS011;16102;57.138;-2.118;2023-04-25T18:35:03;1.58;;;0.68;;
29002;SDS011;16102;57.138;-2.118;2023-04-25T18:37:31;3.33;;;0.75;;
29002;SDS011;16102;57.138;-2.118;2023-04-25T18:39:58;1.77;;;0.50;;
29002;SDS011;16102;57.138;-2.118;2023-04-25T18:42:25;6.90;;;0.63;;
29002;SDS011;16102;57.138;-2.118;2023-04-25T18:44:53;3.42;;;0.77;;
29002;SDS011;16102;57.138;-2.118;2023-04-25T18:47:20;1.00;;;0.70;;
29002;SDS011;16102;57.138;-2.118;2023-04-25T18:49:47;3.60;;;0.88;;
29002;SDS011;16102;57.138;-2.118;2023-04-25T18:52:16;10.43;;;1.25;;
29002;SDS011;16102;57.138;-2.118;2023-04-25T18:54:44;7.20;;;1.10;;
29002;SDS011;16102;57.138;-2.118;2023-04-25T18:57:11;5.55;;;1.35;;
29002;SDS011;16102;57.138;-2.118;2023-04-25T18:59:41;7.72;;;1.55;;
29002;SDS011;16102;57.138;-2.118;2023-04-25T19:02:09;1.20;;;0.80;;
29002;SDS011;16102;57.138;-2.118;2023-04-25T19:04:37;6.43;;;3.60;;
29002;SDS011;16102;57.138;-2.118;2023-04-25T19:07:04;9.63;;;4.00;;
29002;SDS011;16102;57.138;-2.118;2023-04-25T19:09:31;15.13;;;8.50;;
29002;SDS011;16102;57.138;-2.118;2023-04-25T19:11:58;6.20;;;3.40;;
29002;SDS011;16102;57.138;-2.118;2023-04-25T19:14:25;3.95;;;2.20;;
29002;SDS011;16102;57.138;-2.118;2023-04-25T19:16:53;3.33;;;1.67;;
29002;SDS011;16102;57.138;-2.118;2023-04-25T19:19:20;5.22;;;2.03;;
29002;SDS011;16102;57.138;-2.118;2023-04-25T19:21:47;7.40;;;2.47;;
29002;SDS011;16102;57.138;-2.118;2023-04-25T19:24:16;8.20;;;2.08;;
29002;SDS011;16102;57.138;-2.118;2023-04-25T19:26:43;10.07;;;2.83;;
29002;SDS011;16102;57.138;-2.118;2023-04-25T19:29:10;9.30;;;3.90;;
29002;SDS011;16102;57.138;-2.118;2023-04-25T19:31:40;10.43;;;3.65;;
29002;SDS011;16102;57.138;-2.118;2023-04-25T19:34:09;4.13;;;1.52;;
29002;SDS011;16102;57.138;-2.118;2023-04-25T19:36:37;7.05;;;3.20;;
29002;SDS011;16102;57.138;-2.118;2023-04-25T19:39:05;9.02;;;3.67;;
29002;SDS011;16102;57.138;-2.118;2023-04-25T19:41:33;6.30;;;1.88;;
29002;SDS011;16102;57.138;-2.118;2023-04-25T19:44:02;4.97;;;2.15;;
29002;SDS011;16102;57.138;-2.118;2023-04-25T19:46:31;5.00;;;2.75;;
29002;SDS011;16102;57.138;-2.118;2023-04-25T19:48:58;5.97;;;3.25;;
29002;SDS011;16102;57.138;-2.118;2023-04-25T19:51:26;4.80;;;2.20;;
29002;SDS011;16102;57.138;-2.118;2023-04-25T19:53:54;3.72;;;2.28;;